createdAt,value
2024-02-19T00:01:51.261Z,14.25
2024-02-19T00:04:18.631Z,13.32
2024-02-19T00:06:45.617Z,13.05
2024-02-19T00:09:14.409Z,10.90
2024-02-19T00:11:41.802Z,9.80
2024-02-19T00:14:08.871Z,10.35
2024-02-19T00:16:35.766Z,11.43
2024-02-19T00:19:02.822Z,10.48
2024-02-19T00:21:29.733Z,8.75
2024-02-19T00:23:56.674Z,8.68
2024-02-19T00:26:23.655Z,8.88
2024-02-19T00:28:50.712Z,9.27
2024-02-19T00:31:18.120Z,6.40
2024-02-19T00:33:45.239Z,7.03
2024-02-19T00:36:12.187Z,4.72
2024-02-19T00:38:39.116Z,4.85
2024-02-19T00:41:05.969Z,8.00
2024-02-19T00:43:33.152Z,5.05
2024-02-19T00:46:00.470Z,7.50
2024-02-19T00:48:27.501Z,7.60
2024-02-19T00:50:54.519Z,8.98
2024-02-19T00:53:21.456Z,7.75
2024-02-19T00:55:52.009Z,6.50
2024-02-19T00:58:20.676Z,6.65
2024-02-19T01:00:47.792Z,7.85
2024-02-19T01:03:15.241Z,7.28
2024-02-19T01:05:42.779Z,4.60
2024-02-19T01:08:10.874Z,3.58
2024-02-19T01:10:37.811Z,4.15
2024-02-19T01:13:05.015Z,3.33
2024-02-19T01:15:31.936Z,4.15
2024-02-19T01:17:59.386Z,5.50
2024-02-19T01:20:26.350Z,6.88
2024-02-19T01:22:53.225Z,5.43
2024-02-19T01:25:23.009Z,7.40
2024-02-19T01:27:50.605Z,6.38
2024-02-19T01:30:17.947Z,6.43
2024-02-19T01:32:45.335Z,10.25
2024-02-19T01:35:12.372Z,8.57
2024-02-19T01:37:39.373Z,6.38
2024-02-19T01:40:11.043Z,7.57
2024-02-19T01:42:38.587Z,5.45
2024-02-19T01:45:08.438Z,7.50
2024-02-19T01:47:36.338Z,6.45
2024-02-19T01:50:05.133Z,5.57
2024-02-19T01:52:32.330Z,8.20
2024-02-19T01:54:59.330Z,5.00
2024-02-19T01:57:26.249Z,5.93
2024-02-19T01:59:53.935Z,3.45
2024-02-19T02:02:22.988Z,4.25
2024-02-19T02:04:51.445Z,4.78
2024-02-19T02:07:19.121Z,3.40
2024-02-19T02:09:47.679Z,7.28
2024-02-19T02:12:14.741Z,6.43
2024-02-19T02:14:41.690Z,9.52
2024-02-19T02:17:09.358Z,7.38
2024-02-19T02:19:37.542Z,8.82
2024-02-19T02:22:04.697Z,4.85
2024-02-19T02:24:31.698Z,7.13
2024-02-19T02:26:58.748Z,5.03
2024-02-19T02:29:25.702Z,4.68
2024-02-19T02:31:52.700Z,3.22
2024-02-19T02:34:19.760Z,4.63
2024-02-19T02:36:46.722Z,4.30
2024-02-19T02:39:14.437Z,5.20
2024-02-19T02:41:41.335Z,3.72
2024-02-19T02:44:09.199Z,5.47
2024-02-19T02:46:36.106Z,4.38
2024-02-19T02:49:03.089Z,5.85
2024-02-19T02:51:30.065Z,7.43
2024-02-19T02:53:56.987Z,6.85
2024-02-19T02:56:23.948Z,5.20
2024-02-19T02:58:51.541Z,5.57
2024-02-19T03:01:27.074Z,7.07
2024-02-19T03:03:54.698Z,8.05
2024-02-19T03:06:21.743Z,5.57
2024-02-19T03:08:48.782Z,5.72
2024-02-19T03:11:16.343Z,8.57
2024-02-19T03:13:43.286Z,10.30
2024-02-19T03:16:10.704Z,8.32
2024-02-19T03:18:39.151Z,6.35
2024-02-19T03:21:09.140Z,7.57
2024-02-19T03:23:36.247Z,8.10
2024-02-19T03:26:03.250Z,8.50
2024-02-19T03:28:30.198Z,7.50
2024-02-19T03:30:57.550Z,6.53
2024-02-19T03:33:24.575Z,5.15
2024-02-19T03:35:53.790Z,5.80
2024-02-19T03:38:20.931Z,5.78
2024-02-19T03:40:49.919Z,6.32
2024-02-19T03:43:17.045Z,5.22
2024-02-19T03:45:44.088Z,6.25
2024-02-19T03:48:11.658Z,3.30
2024-02-19T03:50:38.623Z,2.17
2024-02-19T03:53:05.537Z,7.90
2024-02-19T03:55:32.673Z,4.78
2024-02-19T03:58:00.804Z,2.53
2024-02-19T04:00:28.166Z,1.75
2024-02-19T04:02:55.448Z,3.20
2024-02-19T04:05:22.359Z,1.95
2024-02-19T04:07:49.301Z,3.53
2024-02-19T04:10:16.411Z,1.80
2024-02-19T04:12:43.451Z,2.67
2024-02-19T04:15:10.476Z,4.50
2024-02-19T04:17:37.508Z,7.50
2024-02-19T04:20:07.712Z,3.20
2024-02-19T04:22:34.911Z,5.03
2024-02-19T04:25:01.965Z,7.65
2024-02-19T04:27:28.936Z,7.82
2024-02-19T04:29:56.384Z,8.32
2024-02-19T04:32:23.227Z,9.30
2024-02-19T04:34:50.268Z,7.88
2024-02-19T04:37:17.326Z,6.50
2024-02-19T04:39:44.413Z,8.57
2024-02-19T04:42:11.317Z,8.90
2024-02-19T04:44:40.153Z,7.38
2024-02-19T04:47:07.038Z,7.30
2024-02-19T04:49:34.106Z,8.68
2024-02-19T04:52:01.734Z,5.80
2024-02-19T04:54:28.794Z,3.15
2024-02-19T04:56:55.942Z,3.50
2024-02-19T04:59:22.802Z,7.35
2024-02-19T05:01:51.997Z,4.32
2024-02-19T05:04:19.949Z,3.42
2024-02-19T05:06:46.932Z,2.55
2024-02-19T05:09:14.366Z,3.08
2024-02-19T05:11:41.295Z,7.30
2024-02-19T05:14:08.151Z,2.60
2024-02-19T05:16:34.993Z,2.88
2024-02-19T05:19:04.067Z,4.05
2024-02-19T05:21:32.217Z,3.80
2024-02-19T05:23:59.160Z,4.25
2024-02-19T05:26:27.309Z,4.50
2024-02-19T05:28:57.914Z,2.42
2024-02-19T05:31:39.490Z,2.80
2024-02-19T05:34:07.697Z,1.13
2024-02-19T05:36:35.726Z,1.42
2024-02-19T05:39:03.451Z,1.98
2024-02-19T05:41:30.631Z,3.08
2024-02-19T05:43:57.614Z,1.92
2024-02-19T05:46:24.679Z,0.80
2024-02-19T05:48:52.146Z,3.92
2024-02-19T05:51:19.407Z,3.22
2024-02-19T05:53:47.615Z,5.30
2024-02-19T05:56:14.530Z,3.13
2024-02-19T05:58:41.884Z,2.40
2024-02-19T06:01:09.312Z,4.65
2024-02-19T06:03:36.837Z,1.83
2024-02-19T06:06:04.501Z,1.80
2024-02-19T06:08:32.005Z,2.58
2024-02-19T06:11:00.832Z,1.40
2024-02-19T06:13:27.852Z,1.13
2024-02-19T06:15:55.007Z,2.83
2024-02-19T06:18:22.150Z,3.25
2024-02-19T06:20:49.875Z,1.60
2024-02-19T06:23:16.888Z,3.95
2024-02-19T06:25:44.662Z,3.17
2024-02-19T06:28:11.986Z,4.07
2024-02-19T06:30:39.970Z,3.45
2024-02-19T06:33:07.703Z,4.55
2024-02-19T06:35:34.759Z,5.25
2024-02-19T06:38:02.113Z,4.18
2024-02-19T06:40:29.525Z,4.28
2024-02-19T06:42:56.716Z,2.85
2024-02-19T06:45:24.076Z,3.03
2024-02-19T06:47:51.751Z,3.47
2024-02-19T06:50:19.067Z,2.28
2024-02-19T06:52:47.574Z,4.70
2024-02-19T06:55:18.671Z,2.90
2024-02-19T06:57:45.915Z,2.45
2024-02-19T07:00:13.641Z,3.63
2024-02-19T07:02:40.998Z,6.20
2024-02-19T07:05:09.411Z,5.15
2024-02-19T07:07:38.957Z,4.72
2024-02-19T07:10:06.637Z,9.32
2024-02-19T07:12:33.668Z,4.72
2024-02-19T07:15:00.586Z,11.48
2024-02-19T07:17:30.730Z,6.63
2024-02-19T07:19:57.873Z,7.35
2024-02-19T07:22:24.904Z,6.35
2024-02-19T07:24:56.413Z,5.43
2024-02-19T07:27:26.949Z,5.57
2024-02-19T07:29:55.119Z,5.70
2024-02-19T07:32:22.468Z,6.38
2024-02-19T07:34:49.667Z,7.40
2024-02-19T07:37:16.900Z,8.05
2024-02-19T07:39:44.756Z,7.97
2024-02-19T07:42:11.757Z,8.32
2024-02-19T07:44:38.730Z,11.48
2024-02-19T07:47:06.016Z,8.25
2024-02-19T07:49:33.666Z,9.30
2024-02-19T07:52:00.782Z,8.25
2024-02-19T07:54:27.792Z,11.85
2024-02-19T07:56:54.805Z,10.65
2024-02-19T07:59:21.755Z,11.60
2024-02-19T08:01:48.747Z,6.95
2024-02-19T08:04:15.791Z,10.70
2024-02-19T08:06:42.942Z,11.30
2024-02-19T08:09:09.911Z,8.93
2024-02-19T08:11:36.994Z,8.20
2024-02-19T08:14:04.134Z,7.90
2024-02-19T08:16:31.332Z,10.40
2024-02-19T08:18:58.615Z,9.48
2024-02-19T08:21:25.704Z,12.93
2024-02-19T08:23:52.725Z,13.23
2024-02-19T08:26:19.595Z,11.20
2024-02-19T08:28:48.181Z,15.95
2024-02-19T08:31:15.877Z,16.95
2024-02-19T08:33:42.901Z,8.60
2024-02-19T08:36:09.891Z,10.05
2024-02-19T08:38:36.759Z,11.27
2024-02-19T08:41:03.810Z,10.27
2024-02-19T08:43:33.820Z,10.20
2024-02-19T08:46:00.864Z,9.80
2024-02-19T08:48:28.102Z,15.40
2024-02-19T08:50:55.102Z,13.15
2024-02-19T08:53:22.507Z,8.80
2024-02-19T08:55:49.446Z,10.95
2024-02-19T08:58:16.414Z,12.60
2024-02-19T09:00:43.513Z,7.85
2024-02-19T09:03:10.534Z,10.00
2024-02-19T09:05:38.567Z,9.05
2024-02-19T09:08:06.821Z,7.65
2024-02-19T09:10:34.428Z,9.35
2024-02-19T09:13:02.660Z,8.05
2024-02-19T09:15:29.673Z,5.93
2024-02-19T09:17:56.913Z,13.68
2024-02-19T09:20:24.047Z,9.55
2024-02-19T09:22:51.012Z,12.75
2024-02-19T09:25:18.233Z,3.42
2024-02-19T09:27:45.470Z,9.20
2024-02-19T09:30:13.794Z,7.72
2024-02-19T09:32:40.932Z,14.50
2024-02-19T09:35:08.337Z,10.63
2024-02-19T09:37:35.394Z,11.75
2024-02-19T09:40:05.856Z,17.02
2024-02-19T09:42:33.559Z,13.07
2024-02-19T09:45:00.627Z,17.35
2024-02-19T09:47:28.415Z,6.55
2024-02-19T09:49:56.350Z,14.60
2024-02-19T09:52:29.520Z,13.95
2024-02-19T09:54:58.104Z,21.05
2024-02-19T09:57:27.002Z,26.13
2024-02-19T09:59:54.497Z,23.67
2024-02-19T10:02:21.562Z,29.67
2024-02-19T10:04:49.185Z,20.25
2024-02-19T10:07:20.234Z,28.88
2024-02-19T10:09:51.124Z,25.05
2024-02-19T10:12:19.666Z,21.23
2024-02-19T10:14:46.741Z,23.50
2024-02-19T10:17:20.231Z,21.40
2024-02-19T10:19:48.481Z,31.85
2024-02-19T10:22:18.087Z,35.53
2024-02-19T10:24:45.114Z,21.90
2024-02-19T10:27:12.250Z,17.70
2024-02-19T10:29:39.317Z,26.50
2024-02-19T10:32:06.492Z,18.42
2024-02-19T10:34:35.047Z,16.45
2024-02-19T10:37:04.577Z,12.68
2024-02-19T10:39:32.899Z,24.85
2024-02-19T10:42:00.380Z,22.15
2024-02-19T10:44:27.794Z,28.58
2024-02-19T10:46:54.951Z,22.90
2024-02-19T10:49:23.174Z,19.90
2024-02-19T10:51:51.754Z,18.50
2024-02-19T10:54:20.245Z,15.43
2024-02-19T10:56:47.818Z,22.77
2024-02-19T10:59:17.644Z,29.58
2024-02-19T11:01:50.541Z,24.35
2024-02-19T11:04:24.358Z,25.02
2024-02-19T11:07:00.383Z,18.10
2024-02-19T11:09:35.625Z,18.83
2024-02-19T11:12:03.971Z,23.00
2024-02-19T11:14:43.598Z,25.75
2024-02-19T11:17:10.692Z,23.88
2024-02-19T11:19:41.915Z,20.88
2024-02-19T11:22:13.458Z,20.42
2024-02-19T11:24:42.022Z,20.65
2024-02-19T11:27:09.328Z,23.23
2024-02-19T11:29:43.684Z,21.40
2024-02-19T11:32:21.032Z,20.05
2024-02-19T11:34:49.636Z,21.92
2024-02-19T11:37:17.393Z,18.00
2024-02-19T11:39:45.676Z,18.75
2024-02-19T11:42:16.709Z,14.90
2024-02-19T11:44:45.116Z,18.92
2024-02-19T11:47:14.984Z,17.88
2024-02-19T11:49:42.739Z,19.27
2024-02-19T11:52:12.256Z,17.70
2024-02-19T11:54:40.542Z,21.80
2024-02-19T11:57:10.641Z,16.83
2024-02-19T11:59:37.656Z,17.02
2024-02-19T12:02:10.692Z,13.40
2024-02-19T12:04:39.088Z,16.85
2024-02-19T12:07:10.069Z,20.02
2024-02-19T12:09:37.271Z,19.05
2024-02-19T12:12:04.641Z,14.50
2024-02-19T12:14:33.128Z,13.80
2024-02-19T12:17:04.885Z,12.05
2024-02-19T12:19:32.703Z,12.98
2024-02-19T12:22:00.016Z,13.13
2024-02-19T12:24:27.664Z,21.75
2024-02-19T12:26:54.677Z,16.85
2024-02-19T12:29:21.574Z,16.92
2024-02-19T12:31:48.621Z,18.67
2024-02-19T12:34:16.401Z,13.77
2024-02-19T12:36:43.509Z,17.17
2024-02-19T12:39:12.041Z,13.45
2024-02-19T12:41:39.590Z,15.90
2024-02-19T12:44:07.104Z,19.45
2024-02-19T12:46:34.482Z,15.13
2024-02-19T12:49:02.343Z,13.65
2024-02-19T12:51:33.807Z,13.90
2024-02-19T12:54:00.811Z,17.20
2024-02-19T12:56:27.839Z,12.82
2024-02-19T12:58:54.814Z,13.55
2024-02-19T13:01:28.198Z,13.23
2024-02-19T13:04:00.415Z,12.02
2024-02-19T13:06:31.329Z,13.55
2024-02-19T13:08:58.912Z,15.07
2024-02-19T13:11:26.952Z,20.02
2024-02-19T13:13:53.944Z,20.52
2024-02-19T13:16:21.841Z,14.00
2024-02-19T13:18:51.164Z,16.05
2024-02-19T13:21:20.769Z,19.08
2024-02-19T13:23:48.019Z,17.52
2024-02-19T13:26:15.073Z,19.65
2024-02-19T13:28:41.958Z,16.50
2024-02-19T13:31:09.073Z,18.40
2024-02-19T13:33:36.214Z,12.57
2024-02-19T13:36:03.398Z,18.50
2024-02-19T13:38:30.969Z,14.07
2024-02-19T13:41:02.056Z,14.70
2024-02-19T13:43:29.141Z,17.70
2024-02-19T13:46:08.652Z,8.98
2024-02-19T13:48:37.019Z,12.13
2024-02-19T13:51:04.610Z,12.32
2024-02-19T13:53:33.452Z,9.05
2024-02-19T13:56:01.136Z,11.18
2024-02-19T13:58:29.461Z,10.95
2024-02-19T14:00:59.239Z,9.35
2024-02-19T14:03:26.730Z,9.57
2024-02-19T14:05:53.849Z,6.70
2024-02-19T14:08:21.406Z,6.03
2024-02-19T14:10:49.461Z,13.02
2024-02-19T14:13:17.513Z,6.93
2024-02-19T14:15:44.999Z,10.05
2024-02-19T14:18:12.273Z,12.40
2024-02-19T14:20:39.455Z,7.40
2024-02-19T14:23:08.407Z,9.98
2024-02-19T14:25:36.699Z,5.95
2024-02-19T14:28:05.273Z,12.35
2024-02-19T14:30:32.620Z,5.15
2024-02-19T14:32:59.774Z,9.40
2024-02-19T14:35:29.679Z,6.57
2024-02-19T14:37:56.694Z,10.65
2024-02-19T14:40:24.534Z,9.35
2024-02-19T14:42:51.862Z,11.00
2024-02-19T14:45:18.943Z,7.40
2024-02-19T14:47:49.192Z,11.90
2024-02-19T14:50:19.728Z,12.20
2024-02-19T14:52:47.106Z,12.40
2024-02-19T14:55:17.060Z,11.25
2024-02-19T14:57:46.160Z,9.98
2024-02-19T15:00:21.800Z,10.27
2024-02-19T15:02:56.848Z,10.02
2024-02-19T15:05:24.187Z,7.25
2024-02-19T15:07:57.125Z,10.90
2024-02-19T15:12:55.428Z,11.50
2024-02-19T15:15:25.242Z,11.25
2024-02-19T15:17:53.439Z,11.75
2024-02-19T15:20:20.842Z,10.48
2024-02-19T15:22:50.848Z,11.48
2024-02-19T15:25:18.148Z,11.15
2024-02-19T15:27:45.130Z,11.23
2024-02-19T15:30:12.653Z,10.75
2024-02-19T15:32:42.992Z,6.40
2024-02-19T15:35:10.262Z,10.43
2024-02-19T15:37:37.507Z,10.25
2024-02-19T15:40:05.003Z,11.63
2024-02-19T15:42:37.706Z,7.22
2024-02-19T15:47:34.827Z,12.35
2024-02-19T15:50:03.974Z,6.65
2024-02-19T15:52:31.170Z,8.80
2024-02-19T15:54:58.283Z,8.63
2024-02-19T15:57:26.168Z,6.63
2024-02-19T15:59:53.118Z,7.07
2024-02-19T16:02:20.127Z,8.05
2024-02-19T16:04:49.553Z,9.68
2024-02-19T16:07:17.953Z,11.25
2024-02-19T16:09:46.401Z,14.70
2024-02-19T16:12:13.883Z,10.27
2024-02-19T16:14:41.478Z,12.07
2024-02-19T16:17:15.384Z,16.15
2024-02-19T16:19:42.431Z,12.02
2024-02-19T16:22:09.600Z,12.77
2024-02-19T16:24:36.612Z,12.27
2024-02-19T16:27:04.852Z,12.60
2024-02-19T16:29:32.685Z,11.68
2024-02-19T16:32:00.988Z,12.68
2024-02-19T16:34:30.429Z,13.80
2024-02-19T16:36:57.421Z,13.82
2024-02-19T16:39:24.404Z,13.15
2024-02-19T16:41:51.996Z,10.88
2024-02-19T16:44:18.901Z,17.25
2024-02-19T16:46:46.782Z,15.93
2024-02-19T16:49:13.814Z,12.52
2024-02-19T16:51:47.649Z,12.88
2024-02-19T16:54:18.276Z,13.35
2024-02-19T16:56:45.180Z,11.52
2024-02-19T16:59:12.043Z,15.10
2024-02-19T17:01:40.159Z,14.82
2024-02-19T17:04:07.359Z,21.50
2024-02-19T17:06:34.529Z,21.73
2024-02-19T17:09:06.143Z,19.00
2024-02-19T17:11:36.020Z,16.05
2024-02-19T17:14:03.103Z,17.95
2024-02-19T17:16:32.849Z,17.23
2024-02-19T17:19:00.239Z,16.55
2024-02-19T17:21:27.657Z,18.40
2024-02-19T17:23:54.513Z,19.80
2024-02-19T17:26:21.423Z,17.60
2024-02-19T17:28:48.433Z,16.98
2024-02-19T17:31:19.153Z,19.92
2024-02-19T17:33:48.711Z,22.95
2024-02-19T17:36:15.925Z,28.75
2024-02-19T17:38:42.857Z,20.75
2024-02-19T17:41:10.320Z,25.25
2024-02-19T17:43:37.397Z,23.00
2024-02-19T17:46:09.850Z,20.05
2024-02-19T17:48:38.778Z,19.60
2024-02-19T17:51:05.909Z,19.58
2024-02-19T17:53:32.977Z,22.13
2024-02-19T17:55:59.926Z,23.63
2024-02-19T17:58:27.532Z,27.02
2024-02-19T18:00:54.570Z,22.55
2024-02-19T18:03:21.597Z,26.73
2024-02-19T18:05:49.258Z,18.77
2024-02-19T18:08:16.824Z,22.60
2024-02-19T18:10:43.826Z,26.00
2024-02-19T18:13:11.199Z,16.02
2024-02-19T18:15:38.220Z,20.65
2024-02-19T18:18:05.986Z,15.20
2024-02-19T18:20:34.081Z,13.68
2024-02-19T18:23:03.982Z,12.52
2024-02-19T18:25:31.150Z,16.17
2024-02-19T18:27:58.950Z,17.00
2024-02-19T18:30:26.148Z,13.82
2024-02-19T18:32:55.160Z,13.30
2024-02-19T18:35:22.220Z,13.93
2024-02-19T18:37:49.257Z,13.77
2024-02-19T18:40:16.434Z,16.33
2024-02-19T18:42:46.033Z,12.35
2024-02-19T18:45:13.114Z,14.60
2024-02-19T18:47:41.931Z,12.38
2024-02-19T18:50:09.334Z,13.60
2024-02-19T18:52:36.492Z,15.60
2024-02-19T18:55:05.284Z,16.33
2024-02-19T18:57:32.733Z,16.58
2024-02-19T18:59:59.629Z,12.27
2024-02-19T19:02:26.593Z,11.65
2024-02-19T19:04:53.605Z,13.25
2024-02-19T19:07:22.430Z,14.80
2024-02-19T19:09:49.592Z,10.85
2024-02-19T19:12:17.855Z,14.82
2024-02-19T19:14:44.931Z,10.10
2024-02-19T19:17:11.914Z,12.95
2024-02-19T19:19:41.813Z,14.05
2024-02-19T19:22:09.226Z,11.98
2024-02-19T19:24:36.322Z,12.55
2024-02-19T19:27:05.670Z,12.85
2024-02-19T19:29:33.421Z,14.13
2024-02-19T19:32:00.720Z,11.80
2024-02-19T19:34:27.786Z,17.65
2024-02-19T19:36:54.973Z,14.00
2024-02-19T19:39:21.942Z,11.38
2024-02-19T19:41:49.346Z,17.33
2024-02-19T19:44:18.423Z,12.75
2024-02-19T19:46:45.724Z,16.10
2024-02-19T19:49:17.867Z,18.30
2024-02-19T19:51:45.107Z,21.35
2024-02-19T19:54:12.489Z,16.48
2024-02-19T19:56:41.559Z,19.20
2024-02-19T19:59:09.043Z,24.60
2024-02-19T20:01:39.823Z,16.92
2024-02-19T20:04:08.025Z,25.50
2024-02-19T20:06:36.738Z,17.88
2024-02-19T20:09:04.211Z,19.23
2024-02-19T20:11:31.222Z,18.67
2024-02-19T20:13:58.184Z,24.85
2024-02-19T20:16:25.556Z,16.98
2024-02-19T20:18:52.566Z,18.67
2024-02-19T20:21:21.196Z,23.55
2024-02-19T20:23:49.715Z,18.38
2024-02-19T20:26:20.205Z,26.02
2024-02-19T20:28:47.186Z,22.27
2024-02-19T20:31:14.188Z,16.30
2024-02-19T20:33:41.278Z,18.83
2024-02-19T20:36:08.376Z,19.50
2024-02-19T20:38:35.539Z,14.00
2024-02-19T20:41:04.153Z,21.08
2024-02-19T20:43:31.073Z,20.35
2024-02-19T20:45:58.047Z,26.27
2024-02-19T20:48:25.082Z,18.67
2024-02-19T20:50:52.186Z,21.98
2024-02-19T20:53:19.327Z,12.70
2024-02-19T20:55:46.683Z,10.88
2024-02-19T20:58:14.398Z,15.82
2024-02-19T21:00:41.444Z,15.00
2024-02-19T21:03:08.503Z,11.65
2024-02-19T21:05:38.882Z,16.60
2024-02-19T21:08:06.545Z,12.38
2024-02-19T21:10:34.842Z,12.77
2024-02-19T21:13:02.527Z,16.88
2024-02-19T21:15:30.299Z,11.98
2024-02-19T21:17:57.486Z,13.80
2024-02-19T21:20:24.532Z,19.85
2024-02-19T21:22:52.944Z,9.93
2024-02-19T21:25:20.168Z,15.80
2024-02-19T21:27:47.202Z,11.57
2024-02-19T21:30:14.602Z,15.65
2024-02-19T21:32:41.713Z,14.98
2024-02-19T21:35:11.814Z,11.85
2024-02-19T21:37:40.332Z,14.25
2024-02-19T21:40:10.332Z,13.13
2024-02-19T21:42:39.230Z,13.38
2024-02-19T21:45:10.376Z,11.02
2024-02-19T21:47:38.634Z,13.90
2024-02-19T21:50:09.676Z,11.57
2024-02-19T21:52:37.907Z,13.38
2024-02-19T21:55:05.841Z,10.10
2024-02-19T21:57:33.091Z,9.10
2024-02-19T22:00:00.019Z,8.20
2024-02-19T22:02:28.587Z,13.35
2024-02-19T22:04:55.823Z,9.48
2024-02-19T22:07:23.040Z,9.93
2024-02-19T22:09:50.105Z,13.23
2024-02-19T22:12:17.023Z,11.23
2024-02-19T22:14:47.405Z,11.10
2024-02-19T22:17:15.044Z,9.90
2024-02-19T22:19:42.441Z,8.85
2024-02-19T22:22:09.489Z,8.20
2024-02-19T22:24:36.960Z,8.05
2024-02-19T22:27:05.009Z,10.35
2024-02-19T22:29:31.919Z,8.50
2024-02-19T22:31:59.092Z,7.22
2024-02-19T22:34:28.717Z,6.55
2024-02-19T22:36:59.156Z,9.45
2024-02-19T22:39:26.768Z,2.70
2024-02-19T22:41:56.549Z,5.72
2024-02-19T22:44:23.553Z,3.30
2024-02-19T22:46:50.682Z,7.45
2024-02-19T22:49:18.283Z,6.93
2024-02-19T22:51:45.269Z,4.90
2024-02-19T22:54:13.352Z,11.38
2024-02-19T22:56:40.275Z,9.32
2024-02-19T22:59:14.504Z,8.13
2024-02-19T23:01:48.668Z,10.27
2024-02-19T23:04:15.852Z,10.18
2024-02-19T23:06:45.217Z,9.45
2024-02-19T23:09:14.108Z,8.15
2024-02-19T23:11:41.592Z,11.68
2024-02-19T23:14:08.571Z,9.63
2024-02-19T23:16:35.514Z,8.95
2024-02-19T23:19:02.533Z,7.97
2024-02-19T23:21:29.572Z,9.32
2024-02-19T23:23:56.411Z,9.20
2024-02-19T23:26:23.262Z,12.25
2024-02-19T23:28:50.195Z,13.48
2024-02-19T23:31:17.154Z,12.38
2024-02-19T23:33:44.132Z,11.80
2024-02-19T23:36:11.164Z,8.68
2024-02-19T23:38:38.057Z,9.85
2024-02-19T23:41:05.094Z,12.13
2024-02-19T23:43:32.647Z,8.55
2024-02-19T23:45:59.702Z,11.52
2024-02-19T23:48:26.975Z,11.52
2024-02-19T23:50:55.291Z,13.27
2024-02-19T23:53:22.311Z,12.70
2024-02-19T23:55:49.333Z,11.52
2024-02-19T23:58:16.344Z,8.75
